Time;durP1;ratioP1;P1;durP2;ratioP2;P2;SDS_P1;SDS_P2;PMS_P1;PMS_P2;Temp;Humidity;BMP_temperature;BMP_pressure;BME280_temperature;BME280_humidity;BME280_pressure;Samples;Min_cycle;Max_cycle;Signal;HPM_P1;HPM_P2
2021/05/11 00:01:53;;;;;;;1.95;0.70;;;14.70;99.90;;;;;;5076135;28;20138;-78
2021/05/11 00:04:19;;;;;;;0.85;0.40;;;14.60;99.90;;;;;;5078274;28;20083;-79
2021/05/11 00:06:46;;;;;;;3.53;0.70;;;14.50;99.90;;;;;;5098346;28;20070;-78
2021/05/11 00:09:13;;;;;;;4.90;0.70;;;14.40;99.90;;;;;;5080493;28;20135;-78
2021/05/11 00:11:39;;;;;;;0.77;0.40;;;14.30;99.90;;;;;;5098259;28;20091;-78
2021/05/11 00:14:07;;;;;;;1.48;0.70;;;14.20;99.90;;;;;;5079205;28;20052;-79
2021/05/11 00:16:34;;;;;;;2.47;0.60;;;14.20;99.90;;;;;;5097144;28;20052;-78
2021/05/11 00:19:04;;;;;;;1.85;1.00;;;14.10;99.90;;;;;;5096832;28;20148;-78
2021/05/11 00:21:30;;;;;;;0.70;0.70;;;14.00;99.90;;;;;;5078451;28;20071;-78
2021/05/11 00:23:57;;;;;;;3.20;0.90;;;14.00;99.90;;;;;;5096995;28;20070;-78
2021/05/11 00:26:23;;;;;;;2.72;0.65;;;14.00;99.90;;;;;;5095926;28;20101;-78
2021/05/11 00:28:49;;;;;;;1.60;0.60;;;13.90;99.90;;;;;;5096221;28;20467;-78
2021/05/11 00:31:15;;;;;;;1.90;0.60;;;13.80;99.90;;;;;;5077572;28;20165;-78
2021/05/11 00:33:41;;;;;;;1.15;0.77;;;13.80;99.90;;;;;;5077259;28;20048;-78
2021/05/11 00:36:08;;;;;;;2.80;0.57;;;13.80;99.90;;;;;;5077103;28;20420;-78
2021/05/11 00:38:34;;;;;;;1.48;0.70;;;13.70;99.90;;;;;;5097687;28;20044;-79
2021/05/11 00:41:00;;;;;;;3.00;0.60;;;13.70;99.90;;;;;;5080501;28;20126;-79
2021/05/11 00:43:27;;;;;;;0.50;0.50;;;13.60;99.90;;;;;;5080197;28;20048;-78
2021/05/11 00:45:53;;;;;;;0.90;0.73;;;13.50;99.90;;;;;;5097779;28;20051;-78
2021/05/11 00:48:19;;;;;;;1.13;0.60;;;13.40;99.90;;;;;;5078559;28;20054;-79
2021/05/11 00:50:46;;;;;;;1.25;0.50;;;13.30;99.90;;;;;;5079464;28;20048;-79
2021/05/11 00:53:12;;;;;;;0.55;0.55;;;13.20;99.90;;;;;;5096703;28;20079;-78
2021/05/11 00:55:38;;;;;;;1.52;0.95;;;13.20;99.90;;;;;;5078611;28;20090;-79
2021/05/11 00:58:06;;;;;;;0.63;0.63;;;13.20;99.90;;;;;;5078404;28;20473;-79
2021/05/11 01:00:32;;;;;;;0.82;0.50;;;13.20;99.90;;;;;;5096205;28;20051;-79
2021/05/11 01:02:59;;;;;;;0.60;0.60;;;13.10;99.90;;;;;;5077881;28;20051;-79
2021/05/11 01:05:25;;;;;;;1.15;0.70;;;13.00;99.90;;;;;;5095772;28;20527;-78
2021/05/11 01:07:51;;;;;;;1.63;0.80;;;13.00;99.90;;;;;;5077539;28;20051;-78
2021/05/11 01:10:17;;;;;;;2.55;0.60;;;13.00;99.90;;;;;;5077466;28;20093;-78
2021/05/11 01:12:45;;;;;;;0.45;0.38;;;13.00;99.90;;;;;;5095232;28;20052;-79
2021/05/11 01:15:12;;;;;;;1.95;0.60;;;13.10;99.90;;;;;;5067233;28;20091;-79
2021/05/11 01:17:39;;;;;;;2.58;0.60;;;13.20;99.90;;;;;;5074693;28;20111;-78
2021/05/11 01:20:13;;;;;;;1.25;0.47;;;13.20;99.90;;;;;;5056045;28;20045;-78
2021/05/11 01:25:29;;;;;;;2.25;0.50;;;13.20;99.90;;;;;;5073495;28;20138;-78
2021/05/11 01:28:22;;;;;;;0.50;0.50;;;13.10;99.90;;;;;;5073528;28;20068;-78
2021/05/11 01:31:10;;;;;;;1.10;0.60;;;13.00;99.90;;;;;;5073855;28;20052;-78
2021/05/11 02:25:04;;;;;;;0.65;0.52;;;13.30;99.90;;;;;;5079326;28;20052;-78
2021/05/11 02:27:31;;;;;;;2.00;0.63;;;13.20;99.90;;;;;;5061515;28;20057;-79
2021/05/11 02:29:57;;;;;;;0.82;0.80;;;13.20;99.90;;;;;;5063302;28;20110;-79
2021/05/11 02:32:23;;;;;;;2.17;0.60;;;13.20;99.90;;;;;;5062914;28;20059;-78
2021/05/11 02:34:50;;;;;;;2.42;0.55;;;13.10;99.90;;;;;;5080939;28;20055;-79
2021/05/11 02:37:16;;;;;;;3.30;0.52;;;12.90;99.90;;;;;;5061874;28;20079;-79
2021/05/11 02:39:42;;;;;;;0.60;0.60;;;13.00;99.90;;;;;;5080079;28;20102;-78
2021/05/11 02:42:09;;;;;;;1.05;0.60;;;12.90;99.90;;;;;;5079388;28;20048;-78
2021/05/11 02:44:41;;;;;;;2.15;0.70;;;12.90;99.90;;;;;;5061515;28;20052;-79
2021/05/11 02:47:08;;;;;;;0.95;0.68;;;12.80;99.90;;;;;;5061098;28;20055;-79
2021/05/11 02:49:38;;;;;;;2.35;0.68;;;12.80;99.90;;;;;;5060336;28;20048;-79
2021/05/11 02:52:05;;;;;;;0.85;0.80;;;12.80;99.90;;;;;;5078305;28;20102;-78
2021/05/11 02:54:32;;;;;;;0.75;0.60;;;12.70;99.90;;;;;;5078159;28;20091;-78
2021/05/11 02:56:58;;;;;;;1.10;0.60;;;12.60;99.90;;;;;;5078471;28;20079;-79
2021/05/11 02:59:24;;;;;;;0.63;0.50;;;12.50;99.90;;;;;;5059189;28;20076;-78
2021/05/11 03:01:51;;;;;;;0.38;0.38;;;12.50;99.90;;;;;;5077795;28;20102;-78
2021/05/11 03:04:18;;;;;;;0.70;0.68;;;12.60;99.90;;;;;;5077434;28;20425;-79
2021/05/11 03:06:44;;;;;;;0.90;0.70;;;12.60;99.90;;;;;;5059167;28;20555;-79
2021/05/11 03:09:12;;;;;;;2.05;0.50;;;12.60;99.90;;;;;;5077838;28;20187;-78
2021/05/11 03:11:38;;;;;;;0.85;0.60;;;12.60;99.90;;;;;;5076691;28;20052;-78
2021/05/11 03:14:05;;;;;;;1.90;1.80;;;12.60;99.90;;;;;;5076624;28;20052;-78
2021/05/11 03:16:35;;;;;;;3.05;2.90;;;12.60;99.90;;;;;;5077396;28;20063;-79
2021/05/11 03:19:01;;;;;;;1.80;1.70;;;12.50;99.90;;;;;;5077098;28;20060;-78
2021/05/11 03:21:28;;;;;;;2.22;1.02;;;12.60;99.90;;;;;;5076557;28;20055;-78
2021/05/11 03:23:54;;;;;;;1.42;0.90;;;12.60;99.90;;;;;;5058389;28;20058;-78
2021/05/11 03:26:21;;;;;;;1.48;1.08;;;12.60;99.90;;;;;;5075720;28;20072;-78
2021/05/11 03:28:47;;;;;;;1.95;1.75;;;12.50;99.90;;;;;;5076249;28;20068;-78
2021/05/11 03:31:13;;;;;;;2.45;1.77;;;12.30;99.90;;;;;;5057842;28;20475;-78
2021/05/11 03:33:39;;;;;;;2.72;1.30;;;12.20;99.90;;;;;;5057829;28;20048;-78
2021/05/11 03:36:06;;;;;;;1.58;1.25;;;12.20;99.90;;;;;;5058404;28;20166;-78
2021/05/11 03:38:32;;;;;;;1.15;1.05;;;12.20;99.90;;;;;;5058225;28;20087;-78
2021/05/11 03:40:58;;;;;;;2.97;1.10;;;12.10;99.90;;;;;;5076222;28;20106;-79
2021/05/11 03:43:29;;;;;;;4.90;0.75;;;12.10;99.90;;;;;;5080122;28;20461;-79
2021/05/11 03:46:05;;;;;;;3.10;1.00;;;12.00;99.90;;;;;;5061968;28;20485;-79
2021/05/11 03:48:32;;;;;;;2.83;0.82;;;12.10;99.90;;;;;;5079565;28;20048;-78
2021/05/11 03:51:05;;;;;;;3.55;1.08;;;12.10;99.90;;;;;;5061155;28;20509;-78
2021/05/11 03:53:35;;;;;;;1.90;1.00;;;12.00;99.90;;;;;;5078226;28;20091;-79
2021/05/11 03:56:03;;;;;;;5.97;1.00;;;11.90;99.90;;;;;;5060108;28;20422;-78
2021/05/11 03:58:30;;;;;;;5.15;1.40;;;11.80;99.90;;;;;;5078101;28;20044;-78
2021/05/11 04:00:57;;;;;;;1.52;0.80;;;11.80;99.90;;;;;;5059728;28;20478;-78
2021/05/11 04:03:23;;;;;;;1.58;0.82;;;11.80;99.90;;;;;;5059238;28;20048;-78
2021/05/11 04:05:52;;;;;;;1.42;0.80;;;11.70;99.90;;;;;;5059308;28;20072;-78
2021/05/11 04:08:37;;;;;;;5.35;1.20;;;11.70;99.90;;;;;;5076473;28;20112;-78
2021/05/11 04:16:28;;;;;;;1.30;1.08;;;11.60;99.90;;;;;;5094639;28;20052;-78
2021/05/11 04:18:55;;;;;;;2.22;1.10;;;11.60;99.90;;;;;;5079772;28;20083;-79
2021/05/11 04:21:23;;;;;;;1.77;0.95;;;11.70;99.90;;;;;;5081026;28;20468;-80
2021/05/11 04:23:53;;;;;;;1.85;1.23;;;11.80;99.90;;;;;;5098826;28;20048;-79
2021/05/11 04:26:21;;;;;;;4.97;1.38;;;12.00;99.90;;;;;;5098359;28;20063;-79
2021/05/11 04:28:49;;;;;;;50.65;3.80;;;12.10;99.90;;;;;;5080163;28;20483;-79
2021/05/11 04:31:16;;;;;;;23.25;2.22;;;12.20;99.90;;;;;;5079369;28;20048;-78
2021/05/11 04:33:43;;;;;;;31.88;2.42;;;12.20;99.90;;;;;;5097799;28;20070;-78
2021/05/11 04:36:11;;;;;;;34.53;2.55;;;12.20;99.90;;;;;;5097627;28;20461;-79
2021/05/11 04:38:38;;;;;;;17.85;1.73;;;12.20;99.90;;;;;;5096891;28;20083;-79
2021/05/11 04:41:06;;;;;;;27.30;2.72;;;12.30;99.90;;;;;;5096829;28;20083;-79
2021/05/11 04:43:35;;;;;;;30.55;2.45;;;12.50;99.90;;;;;;5078088;28;20074;-79
2021/05/11 04:46:24;;;;;;;2.13;1.30;;;12.50;99.90;;;;;;5077975;28;20044;-78
2021/05/11 04:48:52;;;;;;;16.73;1.70;;;12.60;99.90;;;;;;5096380;28;20465;-79
2021/05/11 04:51:20;;;;;;;6.95;1.00;;;12.70;99.90;;;;;;5096280;28;20075;-79
2021/05/11 04:53:48;;;;;;;7.85;0.98;;;12.60;99.90;;;;;;5078772;28;20056;-78
2021/05/11 04:56:15;;;;;;;2.88;1.05;;;12.60;99.90;;;;;;5097283;28;20079;-79
2021/05/11 04:58:41;;;;;;;1.85;0.65;;;12.60;99.90;;;;;;5097217;28;20486;-79
2021/05/11 05:01:08;;;;;;;2.53;0.73;;;12.60;99.90;;;;;;5079094;28;20496;-79
2021/05/11 05:03:40;;;;;;;1.20;1.10;;;12.60;99.90;;;;;;5095946;28;20094;-79
2021/05/11 05:06:07;;;;;;;0.98;0.85;;;12.50;99.90;;;;;;5077394;28;20094;-78
2021/05/11 05:08:34;;;;;;;1.92;0.90;;;12.60;99.90;;;;;;5077036;28;20048;-78
2021/05/11 05:11:01;;;;;;;0.80;0.80;;;12.70;99.90;;;;;;5077619;28;20084;-79
2021/05/11 05:13:28;;;;;;;0.90;0.90;;;12.70;99.90;;;;;;5076795;28;20048;-79
2021/05/11 05:15:56;;;;;;;2.17;0.90;;;12.80;99.90;;;;;;5095502;28;20528;-78
2021/05/11 05:18:27;;;;;;;3.70;1.00;;;13.00;99.90;;;;;;5094558;28;20449;-78
2021/05/11 05:20:55;;;;;;;1.73;0.90;;;13.20;99.90;;;;;;5094712;28;20135;-78
2021/05/11 05:23:28;;;;;;;7.68;1.10;;;13.40;99.90;;;;;;5076373;28;20044;-79
2021/05/11 05:26:06;;;;;;;3.03;0.93;;;13.70;99.90;;;;;;5094686;28;20047;-78
2021/05/11 05:28:37;;;;;;;4.00;0.80;;;14.10;99.90;;;;;;5076663;28;20127;-78
2021/05/11 05:31:04;;;;;;;2.10;0.80;;;14.30;99.90;;;;;;5076202;28;20466;-78
2021/05/11 05:33:40;;;;;;;6.72;1.13;;;14.30;99.90;;;;;;5078897;28;20075;-79
2021/05/11 05:36:08;;;;;;;6.53;1.20;;;14.50;99.90;;;;;;5079915;28;20056;-80
2021/05/11 05:38:39;;;;;;;1.55;1.10;;;14.70;99.90;;;;;;5097764;28;20052;-79
2021/05/11 05:41:11;;;;;;;2.92;0.90;;;14.80;99.90;;;;;;5079317;28;20055;-78
2021/05/11 05:43:38;;;;;;;4.50;1.05;;;14.80;99.90;;;;;;5079070;28;20048;-78
2021/05/11 05:46:04;;;;;;;16.23;1.90;;;14.70;99.90;;;;;;5078355;28;20048;-79
2021/05/11 05:48:31;;;;;;;7.82;1.83;;;14.60;99.90;;;;;;5096800;28;20449;-78
2021/05/11 05:51:00;;;;;;;2.33;0.95;;;14.70;99.90;;;;;;5095789;28;20481;-78
2021/05/11 05:53:34;;;;;;;7.78;1.27;;;14.80;99.90;;;;;;5077858;28;20048;-78
2021/05/11 05:56:03;;;;;;;6.80;1.30;;;15.00;99.90;;;;;;5077801;28;20496;-78
2021/05/11 05:58:31;;;;;;;6.60;1.30;;;15.10;99.90;;;;;;5077453;28;20071;-78
2021/05/11 06:01:07;;;;;;;7.05;1.50;;;15.20;99.90;;;;;;5077159;28;20044;-78
2021/05/11 06:06:12;;;;;;;5.60;3.13;;;15.50;99.90;;;;;;5095664;28;20048;-79
2021/05/11 06:08:40;;;;;;;1.23;1.05;;;15.70;99.90;;;;;;5080545;28;20518;-79
2021/05/11 06:11:18;;;;;;;12.20;4.45;;;15.90;99.90;;;;;;5080720;28;20052;-79
2021/05/11 06:19:20;;;;;;;8.85;2.13;;;16.10;99.90;;;;;;5096144;28;20113;-79
2021/05/11 06:21:47;;;;;;;7.82;1.50;;;16.40;99.90;;;;;;5096481;28;20051;-79
2021/05/11 06:24:14;;;;;;;3.70;2.90;;;16.60;99.90;;;;;;5096227;28;20048;-79
2021/05/11 06:26:43;;;;;;;16.33;3.88;;;16.70;99.90;;;;;;5096411;28;20071;-79
2021/05/11 06:29:15;;;;;;;21.23;10.45;;;16.60;99.90;;;;;;5077845;28;20075;-79
2021/05/11 06:31:41;;;;;;;20.73;11.93;;;16.60;99.90;;;;;;5096002;28;20044;-79
2021/05/11 06:34:10;;;;;;;12.70;7.47;;;16.80;99.90;;;;;;5094920;28;20047;-78
2021/05/11 06:36:36;;;;;;;25.38;17.00;;;17.20;99.90;;;;;;5094961;28;20074;-78
2021/05/11 06:39:08;;;;;;;12.20;2.83;;;17.30;99.90;;;;;;5095016;28;20082;-78
2021/05/11 06:41:36;;;;;;;9.38;4.63;;;16.90;99.90;;;;;;5076647;28;20075;-79
2021/05/11 06:54:39;;;;;;;4.72;2.10;;;18.00;99.90;;;;;;5097056;28;20048;-78
2021/05/11 06:57:07;;;;;;;3.10;2.17;;;17.80;99.90;;;;;;5096997;28;20527;-79
2021/05/11 06:59:34;;;;;;;2.55;1.85;;;18.10;99.90;;;;;;5079039;28;20102;-79
2021/05/11 07:02:02;;;;;;;3.30;2.20;;;18.50;99.90;;;;;;5096849;28;20040;-79
2021/05/11 07:04:29;;;;;;;5.18;2.58;;;18.90;99.90;;;;;;5078545;28;20044;-78
2021/05/11 07:06:57;;;;;;;5.35;2.30;;;18.70;99.90;;;;;;5097101;28;20097;-79
2021/05/11 07:14:59;;;;;;;7.00;2.90;;;19.40;99.90;;;;;;5096199;28;20052;-78
2021/05/11 07:17:26;;;;;;;5.97;2.90;;;19.40;99.90;;;;;;5096704;28;20177;-79
2021/05/11 07:19:54;;;;;;;8.40;3.30;;;19.30;99.90;;;;;;5096223;28;20052;-78
2021/05/11 07:22:21;;;;;;;3.90;3.60;;;19.30;99.90;;;;;;5077756;28;20052;-78
2021/05/11 07:24:52;;;;;;;3.63;3.00;;;19.40;99.90;;;;;;5098271;28;20138;-79
2021/05/11 07:30:10;;;;;;;3.38;3.15;;;20.00;99.90;;;;;;5099265;28;20044;-79
2021/05/11 07:32:38;;;;;;;6.07;2.80;;;20.70;99.90;;;;;;5081184;28;20084;-79
2021/05/11 07:35:06;;;;;;;3.55;2.75;;;21.30;99.90;;;;;;5099135;28;20077;-79
2021/05/11 07:37:33;;;;;;;6.25;2.67;;;21.30;99.90;;;;;;5081242;28;20052;-78
2021/05/11 07:40:00;;;;;;;3.88;2.50;;;21.60;99.90;;;;;;5080972;28;20044;-78
2021/05/11 07:42:26;;;;;;;6.80;2.95;;;21.00;99.90;;;;;;5085953;28;20428;-78
2021/05/11 07:44:58;;;;;;;4.10;3.80;;;21.30;99.90;;;;;;5086627;28;20076;-79
2021/05/11 07:50:23;;;;;;;4.07;3.78;;;21.00;99.90;;;;;;5102882;28;20040;-78
2021/05/11 08:17:28;;;;;;;6.88;2.42;;;27.10;95.80;;;;;;5098571;28;20059;-79
2021/05/11 08:20:09;;;;;;;6.65;2.70;;;29.00;90.80;;;;;;5098073;28;20090;-80
2021/05/11 08:28:09;;;;;;;5.57;2.38;;;30.60;68.70;;;;;;5098188;28;20062;-79
2021/05/11 08:30:37;;;;;;;3.20;2.42;;;30.90;67.80;;;;;;5079360;28;20051;-78
2021/05/11 08:33:05;;;;;;;2.60;2.28;;;30.30;68.70;;;;;;5079834;28;20051;-79
2021/05/11 08:35:32;;;;;;;4.18;2.30;;;30.80;66.70;;;;;;5079678;28;20459;-79
2021/05/11 08:37:59;;;;;;;2.75;2.40;;;31.40;64.70;;;;;;5079867;28;20087;-79
2021/05/11 08:40:26;;;;;;;10.63;3.45;;;30.70;64.50;;;;;;5078156;28;20110;-77
2021/05/11 08:42:52;;;;;;;10.18;2.63;;;31.40;61.80;;;;;;5075139;28;20091;-77
2021/05/11 08:45:19;;;;;;;12.38;3.20;;;32.10;61.50;;;;;;5077250;28;20125;-79
2021/05/11 08:47:50;;;;;;;8.77;2.92;;;32.40;59.00;;;;;;5097962;28;20051;-79
2021/05/11 08:50:36;;;;;;;14.68;2.60;;;33.40;57.20;;;;;;5093056;28;20052;-76
2021/05/11 09:16:01;;;;;;;6.75;2.08;;;30.10;61.10;;;;;;5092702;28;20080;-77
2021/05/11 09:33:20;;;;;;;3.88;2.17;;;28.20;65.70;;;;;;5083081;28;20476;-78
2021/05/11 09:58:58;;;;;;;2.38;2.10;;;29.10;72.20;;;;;;5096577;28;20131;-79
2021/05/11 10:10:29;;;;;;;2.17;2.00;;;29.00;68.90;;;;;;5096044;28;20090;-79
2021/05/11 10:47:03;;;;;;;2.00;1.60;;;28.90;68.70;;;;;;5098332;28;20040;-79
2021/05/11 10:49:34;;;;;;;6.93;1.85;;;28.80;69.30;;;;;;5080581;28;20131;-79
2021/05/11 10:52:30;;;;;;;4.45;1.40;;;28.50;70.00;;;;;;5078595;28;20052;-76
2021/05/11 10:57:52;;;;;;;5.32;1.73;;;28.50;73.10;;;;;;5096729;28;20082;-78
2021/05/11 11:00:26;;;;;;;4.13;2.15;;;27.50;72.70;;;;;;5080151;28;20044;-76
2021/05/11 11:03:13;;;;;;;7.15;1.90;;;27.00;73.80;;;;;;5079851;28;20126;-78
2021/05/11 11:05:41;;;;;;;6.25;1.88;;;26.90;77.30;;;;;;5097723;28;20075;-79
2021/05/11 11:08:39;;;;;;;3.60;1.60;;;27.50;76.80;;;;;;5100011;28;20048;-79
2021/05/11 11:11:20;;;;;;;2.08;1.98;;;27.90;75.40;;;;;;5100387;28;20079;-80
2021/05/11 11:13:52;;;;;;;3.63;1.80;;;27.90;73.80;;;;;;5100324;28;20099;-79
2021/05/11 11:16:38;;;;;;;2.20;1.95;;;27.70;75.30;;;;;;5085649;28;20404;-78
2021/05/11 11:19:09;;;;;;;8.30;2.90;;;27.40;73.70;;;;;;5098632;28;20217;-79
2021/05/11 11:22:03;;;;;;;3.15;1.98;;;27.30;74.30;;;;;;5099154;28;20093;-78
2021/05/11 11:24:31;;;;;;;2.17;2.00;;;26.60;75.60;;;;;;5080821;28;20071;-79
2021/05/11 11:26:59;;;;;;;5.18;1.98;;;26.60;78.30;;;;;;5080396;28;20068;-79
2021/05/11 11:29:27;;;;;;;2.60;1.65;;;26.50;79.20;;;;;;5080476;28;20169;-78
2021/05/11 11:31:54;;;;;;;4.63;1.88;;;26.70;82.50;;;;;;5079712;28;20131;-79
2021/05/11 11:34:35;;;;;;;2.97;1.67;;;27.30;79.50;;;;;;5079971;28;20040;-78
2021/05/11 11:37:05;;;;;;;2.35;1.98;;;27.60;80.00;;;;;;5097557;28;20500;-79
2021/05/11 11:39:34;;;;;;;3.10;2.00;;;27.90;80.00;;;;;;5097209;28;20120;-79
2021/05/11 11:42:04;;;;;;;2.88;2.13;;;28.10;78.30;;;;;;5097711;28;20093;-79
2021/05/11 11:44:39;;;;;;;7.25;2.10;;;28.10;74.50;;;;;;5082352;28;20051;-79
2021/05/11 11:47:11;;;;;;;4.25;1.90;;;28.20;74.90;;;;;;5081121;28;20090;-79
2021/05/11 11:49:45;;;;;;;4.05;2.13;;;28.60;73.20;;;;;;5081300;28;20046;-79
2021/05/11 11:52:16;;;;;;;;;;;28.50;72.80;;;;;;5081373;28;20044;-79
2021/05/11 12:00:32;;;;;;;3.78;1.80;;;28.30;73.00;;;;;;5084388;28;20805;-79
2021/05/11 12:03:05;;;;;;;4.85;2.78;;;28.30;75.10;;;;;;5079797;28;20535;-78
2021/05/11 12:05:34;;;;;;;4.00;2.03;;;28.10;72.50;;;;;;5097566;28;20105;-79
2021/05/11 12:08:25;;;;;;;2.00;1.80;;;27.50;72.40;;;;;;5078660;28;20044;-79
2021/05/11 12:10:53;;;;;;;8.40;2.05;;;27.50;72.20;;;;;;5067048;28;20105;-78
2021/05/11 12:13:26;;;;;;;2.92;2.33;;;26.90;75.00;;;;;;5078222;28;20113;-78
2021/05/11 12:16:07;;;;;;;8.65;2.40;;;26.70;77.50;;;;;;5096173;28;20079;-79
2021/05/11 12:18:35;;;;;;;4.13;2.10;;;26.70;78.50;;;;;;5078271;28;20083;-79
2021/05/11 12:21:05;;;;;;;2.33;1.88;;;27.20;77.80;;;;;;5077855;28;20098;-79
2021/05/11 12:23:32;;;;;;;3.50;1.85;;;28.20;74.20;;;;;;5077790;28;20048;-78
2021/05/11 12:26:04;;;;;;;9.93;2.25;;;27.60;72.00;;;;;;5095537;28;20048;-79
2021/05/11 12:28:39;;;;;;;1.45;1.35;;;28.10;75.70;;;;;;5077220;28;20063;-79
2021/05/11 12:31:08;;;;;;;5.88;2.00;;;28.50;72.20;;;;;;5077850;28;20554;-79
2021/05/11 12:33:40;;;;;;;2.97;1.30;;;28.20;74.80;;;;;;5075792;28;20079;-77
2021/05/11 12:36:22;;;;;;;6.87;1.53;;;28.40;75.20;;;;;;5075448;28;20139;-77
2021/05/11 12:38:50;;;;;;;5.85;1.85;;;28.70;72.60;;;;;;5075447;28;20048;-77
2021/05/11 12:41:30;;;;;;;2.72;1.50;;;27.90;73.50;;;;;;5075218;28;20105;-77
2021/05/11 12:43:57;;;;;;;2.03;1.83;;;27.30;77.60;;;;;;5074774;28;20040;-77
2021/05/11 12:46:30;;;;;;;3.63;2.05;;;27.30;75.70;;;;;;5093361;28;20470;-78
2021/05/11 12:49:11;;;;;;;5.38;2.20;;;27.20;77.50;;;;;;5075125;28;20425;-76
2021/05/11 12:51:41;;;;;;;3.55;1.98;;;26.90;81.70;;;;;;5076141;28;20063;-77
2021/05/11 12:54:33;;;;;;;3.40;2.13;;;27.20;80.40;;;;;;5076244;28;20075;-78
2021/05/11 13:02:39;;;;;;;3.10;2.08;;;25.80;88.90;;;;;;5094430;28;20109;-78
2021/05/11 13:32:46;;;;;;;3.00;2.35;;;24.10;99.90;;;;;;5093236;28;20066;-78
2021/05/11 13:35:13;;;;;;;2.65;2.25;;;24.20;99.90;;;;;;5075419;28;20097;-77
2021/05/11 13:37:39;;;;;;;4.78;2.72;;;24.10;99.90;;;;;;5093696;28;20105;-78
2021/05/11 13:40:07;;;;;;;3.22;2.00;;;23.90;99.90;;;;;;5075808;28;20119;-78
2021/05/11 13:42:34;;;;;;;8.88;2.85;;;24.20;99.90;;;;;;5075559;28;20040;-78
2021/05/11 13:45:01;;;;;;;4.03;2.00;;;24.20;99.90;;;;;;5093285;28;20046;-78
2021/05/11 13:47:28;;;;;;;3.95;2.67;;;24.30;99.90;;;;;;5076544;28;20083;-78
2021/05/11 13:49:58;;;;;;;4.00;2.67;;;24.40;99.90;;;;;;5093368;28;20044;-77
2021/05/11 13:52:25;;;;;;;6.30;2.53;;;24.30;99.90;;;;;;5093527;28;20048;-78
2021/05/11 13:54:59;;;;;;;3.03;2.80;;;23.40;99.90;;;;;;5095168;28;20461;-77
2021/05/11 14:02:57;;;;;;;4.30;2.53;;;23.90;99.90;;;;;;5097623;28;20090;-78
2021/05/11 14:05:24;;;;;;;5.45;3.30;;;24.20;99.90;;;;;;5097040;28;20450;-77
2021/05/11 14:07:51;;;;;;;5.50;3.25;;;23.80;99.90;;;;;;5079150;28;20044;-77
2021/05/11 14:10:18;;;;;;;6.55;2.83;;;23.50;99.90;;;;;;5097174;28;20087;-77
2021/05/11 14:12:46;;;;;;;4.85;3.72;;;23.90;99.90;;;;;;5079471;28;20048;-77
2021/05/11 14:15:13;;;;;;;7.43;3.90;;;23.80;99.90;;;;;;5097714;28;20139;-78
2021/05/11 14:17:40;;;;;;;7.25;5.80;;;24.00;99.90;;;;;;5079221;28;20126;-77
2021/05/11 14:20:07;;;;;;;4.53;4.00;;;23.20;99.90;;;;;;5097013;28;20405;-77
2021/05/11 14:22:34;;;;;;;8.45;3.72;;;23.00;99.90;;;;;;5097727;28;20428;-78
2021/05/11 14:25:01;;;;;;;5.25;3.55;;;23.20;99.90;;;;;;5097654;28;20044;-77
2021/05/11 14:27:28;;;;;;;6.95;5.80;;;23.60;99.90;;;;;;5078878;28;20102;-77
2021/05/11 14:29:55;;;;;;;4.88;4.20;;;23.10;99.90;;;;;;5078737;28;20044;-78
2021/05/11 14:32:22;;;;;;;10.70;4.65;;;23.00;99.90;;;;;;5098153;28;20063;-78
2021/05/11 14:34:49;;;;;;;6.75;4.93;;;22.80;99.90;;;;;;5078890;28;20044;-77
2021/05/11 14:37:16;;;;;;;5.80;5.20;;;22.60;99.90;;;;;;5078028;28;20095;-77
2021/05/11 14:39:43;;;;;;;14.32;5.35;;;22.30;99.90;;;;;;5078185;28;20086;-78
2021/05/11 14:42:09;;;;;;;7.00;5.15;;;21.90;99.90;;;;;;5096480;28;20101;-77
2021/05/11 14:44:36;;;;;;;7.13;5.15;;;22.00;99.90;;;;;;5077847;28;20048;-77
2021/05/11 14:47:03;;;;;;;7.47;4.70;;;22.20;99.90;;;;;;5095872;28;20052;-77
2021/05/11 14:49:32;;;;;;;10.20;4.88;;;21.80;99.90;;;;;;5096456;28;20052;-77
2021/05/11 14:51:58;;;;;;;6.55;4.82;;;22.00;99.90;;;;;;5096444;28;20067;-77
2021/05/11 14:54:28;;;;;;;7.05;4.40;;;21.90;99.90;;;;;;5079787;28;20139;-79
2021/05/11 14:56:55;;;;;;;5.38;4.80;;;21.90;99.90;;;;;;5078364;28;20077;-77
2021/05/11 14:59:23;;;;;;;7.68;4.43;;;22.10;99.90;;;;;;5096509;28;20048;-77
2021/05/11 15:01:49;;;;;;;12.90;5.18;;;22.40;99.90;;;;;;5095517;28;20073;-78
2021/05/11 15:04:16;;;;;;;7.40;4.60;;;22.20;99.90;;;;;;5077493;28;20054;-77
2021/05/11 15:06:43;;;;;;;7.85;5.18;;;22.60;99.90;;;;;;5077325;28;20048;-77
2021/05/11 15:09:10;;;;;;;6.22;5.72;;;22.40;99.90;;;;;;5095603;28;20040;-77
2021/05/11 15:11:37;;;;;;;8.95;4.97;;;22.30;99.90;;;;;;5095639;28;20131;-77
2021/05/11 15:14:04;;;;;;;6.03;4.72;;;22.30;99.90;;;;;;5095226;28;20052;-77
2021/05/11 15:16:37;;;;;;;5.72;4.65;;;22.40;99.90;;;;;;5077754;28;20056;-78
2021/05/11 15:19:05;;;;;;;8.83;5.23;;;22.40;99.90;;;;;;5095729;28;20135;-77
2021/05/11 15:21:33;;;;;;;8.23;5.40;;;21.80;99.90;;;;;;5095428;28;20062;-77
2021/05/11 15:24:00;;;;;;;6.85;5.60;;;21.50;99.90;;;;;;5078275;28;20044;-79
2021/05/11 15:26:30;;;;;;;6.97;4.88;;;20.90;99.90;;;;;;5081625;28;20083;-78
2021/05/11 15:28:59;;;;;;;12.68;5.72;;;20.60;99.90;;;;;;5079681;28;20040;-78
2021/05/11 15:31:26;;;;;;;30.77;7.90;;;20.30;99.90;;;;;;5081601;28;20086;-78
2021/05/11 15:33:56;;;;;;;38.28;14.65;;;19.60;99.90;;;;;;5096226;28;20054;-76
2021/05/11 15:36:23;;;;;;;30.02;13.48;;;18.60;99.90;;;;;;5087551;28;20048;-78
2021/05/11 15:38:50;;;;;;;40.20;19.33;;;17.70;99.90;;;;;;5105584;28;20075;-79
2021/05/11 15:41:22;;;;;;;36.83;19.45;;;17.30;99.90;;;;;;5103152;28;20411;-80
2021/05/11 15:43:49;;;;;;;38.08;23.25;;;17.00;99.90;;;;;;5084582;28;20479;-78
2021/05/11 15:46:16;;;;;;;33.45;21.95;;;16.90;99.90;;;;;;5084366;28;20040;-78
2021/05/11 15:48:42;;;;;;;28.63;20.77;;;16.80;99.90;;;;;;5081250;28;20554;-77
2021/05/11 15:51:09;;;;;;;18.63;16.73;;;16.70;99.90;;;;;;5078976;28;20066;-77
2021/05/11 15:53:38;;;;;;;31.00;18.88;;;16.60;99.90;;;;;;5079042;28;20417;-77
2021/05/11 15:56:05;;;;;;;25.48;18.95;;;16.40;99.90;;;;;;5097381;28;20048;-77
2021/05/11 15:58:31;;;;;;;27.48;22.13;;;16.30;99.90;;;;;;5096030;28;20102;-76
2021/05/11 16:00:59;;;;;;;31.23;24.60;;;16.20;99.90;;;;;;5095350;28;20127;-76
2021/05/11 16:03:26;;;;;;;34.10;23.70;;;16.30;99.90;;;;;;5094746;28;20040;-77
2021/05/11 16:05:52;;;;;;;28.48;22.35;;;16.20;99.90;;;;;;5078075;28;20091;-77
2021/05/11 16:08:27;;;;;;;26.92;22.83;;;16.30;99.90;;;;;;5080346;28;20048;-77
2021/05/11 16:10:54;;;;;;;28.20;22.60;;;16.30;99.90;;;;;;5099062;28;20047;-77
2021/05/11 16:13:22;;;;;;;25.20;21.38;;;16.10;99.90;;;;;;5098723;28;20136;-79
2021/05/11 16:15:50;;;;;;;32.50;23.25;;;16.10;99.90;;;;;;5098870;28;20508;-76
2021/05/11 16:18:18;;;;;;;37.90;26.00;;;16.10;99.90;;;;;;5095598;28;20492;-77
2021/05/11 16:20:45;;;;;;;39.50;25.25;;;16.10;99.90;;;;;;5078525;28;20091;-80
2021/05/11 16:23:12;;;;;;;38.25;24.08;;;16.00;99.90;;;;;;5077846;28;20056;-77
2021/05/11 16:25:38;;;;;;;36.70;24.63;;;15.90;99.90;;;;;;5077163;28;20095;-78
2021/05/11 16:28:07;;;;;;;33.00;26.52;;;15.90;99.90;;;;;;5079781;28;20083;-78
2021/05/11 16:30:36;;;;;;;37.63;26.50;;;15.90;99.90;;;;;;5095996;28;20055;-78
2021/05/11 16:33:04;;;;;;;32.53;25.63;;;15.90;99.90;;;;;;5078171;28;20044;-76
2021/05/11 16:35:31;;;;;;;27.63;22.52;;;16.00;99.90;;;;;;5077253;28;20078;-77
2021/05/11 16:37:57;;;;;;;31.90;22.55;;;16.00;99.90;;;;;;5076618;28;20101;-76
2021/05/11 16:40:24;;;;;;;30.98;22.48;;;16.00;99.90;;;;;;5094224;28;20072;-77
2021/05/11 16:42:55;;;;;;;35.00;24.45;;;16.10;99.90;;;;;;5094184;28;20131;-75
2021/05/11 16:45:22;;;;;;;23.23;20.70;;;16.10;99.90;;;;;;5095734;28;20135;-77
2021/05/11 16:47:55;;;;;;;26.63;21.90;;;16.10;99.90;;;;;;5077529;28;20051;-77
2021/05/11 16:50:33;;;;;;;24.40;20.42;;;16.20;99.90;;;;;;5078207;28;20381;-77
2021/05/11 16:53:03;;;;;;;21.48;18.67;;;16.30;99.90;;;;;;5095049;28;20089;-77
2021/05/11 16:55:31;;;;;;;23.10;20.65;;;16.40;99.90;;;;;;5094407;28;20123;-77
2021/05/11 16:57:58;;;;;;;23.42;20.10;;;16.40;99.90;;;;;;5094642;28;20103;-76
2021/05/11 17:00:27;;;;;;;24.33;20.90;;;16.40;99.90;;;;;;5077274;28;20047;-77
2021/05/11 17:02:54;;;;;;;19.40;17.33;;;16.40;99.90;;;;;;5095372;28;20443;-77
2021/05/11 17:05:21;;;;;;;17.27;15.55;;;16.30;99.90;;;;;;5096046;28;20543;-77
2021/05/11 17:07:49;;;;;;;22.17;17.02;;;16.30;99.90;;;;;;5076685;28;20044;-77
2021/05/11 17:10:17;;;;;;;21.63;18.73;;;16.30;99.90;;;;;;5094363;28;20056;-77
2021/05/11 17:12:44;;;;;;;18.02;16.23;;;16.30;99.90;;;;;;5093243;28;20048;-76
2021/05/11 17:15:12;;;;;;;17.23;15.63;;;16.20;99.90;;;;;;5096187;28;20090;-77
2021/05/11 17:17:39;;;;;;;20.20;18.10;;;16.30;99.90;;;;;;5079371;28;20073;-77
2021/05/11 17:20:07;;;;;;;21.65;18.13;;;16.30;99.90;;;;;;5094343;28;20094;-76
2021/05/11 17:22:34;;;;;;;19.95;17.95;;;16.30;99.90;;;;;;5077048;28;20044;-77
2021/05/11 17:25:02;;;;;;;23.05;20.75;;;16.30;99.90;;;;;;5077817;28;20051;-77